Time;durP1;ratioP1;P1;durP2;ratioP2;P2;SDS_P1;SDS_P2;PMS_P1;PMS_P2;Temp;Humidity;BMP_temperature;BMP_pressure;BME280_temperature;BME280_humidity;BME280_pressure;Samples;Min_cycle;Max_cycle;Signal;HPM_P1;HPM_P2
2022/05/16 00:02:18;;;;;;;12.30;9.55;;;;;;;16.10;74.20;99652.63;4972308;28;20023;-90
2022/05/16 00:04:44;;;;;;;12.40;9.10;;;;;;;16.04;74.19;99656.53;4972274;28;20058;-90
2022/05/16 00:07:10;;;;;;;16.00;10.85;;;;;;;15.97;74.02;99650.66;4971834;28;20018;-90
2022/05/16 00:09:36;;;;;;;14.45;10.45;;;;;;;16.00;74.89;99668.28;4956345;28;20480;-90
2022/05/16 00:12:02;;;;;;;11.15;9.57;;;;;;;16.04;74.56;99677.44;4956163;28;20503;-90
2022/05/16 00:14:28;;;;;;;14.10;9.40;;;;;;;15.93;74.87;99677.59;4956050;28;20027;-90
2022/05/16 00:16:53;;;;;;;14.52;9.38;;;;;;;15.81;74.96;99658.25;4988899;28;20039;-90
2022/05/16 00:19:19;;;;;;;12.43;9.18;;;;;;;15.78;74.92;99655.34;4975415;28;20151;-90
2022/05/16 00:21:44;;;;;;;15.23;9.13;;;;;;;15.85;74.63;99661.97;4975139;28;20055;-90
2022/05/16 00:24:10;;;;;;;10.32;9.23;;;;;;;15.76;75.00;99647.47;4959221;28;20405;-90
2022/05/16 00:26:35;;;;;;;10.70;9.70;;;;;;;15.75;74.81;99660.25;4975216;28;20077;-90
2022/05/16 00:29:01;;;;;;;11.48;10.30;;;;;;;15.76;75.44;99661.84;4958949;28;20031;-91
2022/05/16 00:31:26;;;;;;;11.43;10.18;;;;;;;15.65;75.46;99648.72;4943400;28;20034;-90
2022/05/16 00:33:52;;;;;;;15.25;9.65;;;;;;;15.72;75.32;99658.13;4943092;28;20147;-90
2022/05/16 00:36:17;;;;;;;11.40;9.40;;;;;;;15.67;75.19;99654.66;4974959;28;20034;-90
2022/05/16 00:38:43;;;;;;;12.82;9.95;;;;;;;15.80;74.99;99664.78;4975091;28;20023;-89
2022/05/16 00:41:08;;;;;;;14.43;10.43;;;;;;;15.78;75.20;99667.00;4959091;28;20031;-90
2022/05/16 00:44:00;;;;;;;13.65;10.05;;;;;;;15.60;75.20;99656.94;4959056;28;20023;-93
2022/05/16 00:46:30;;;;;;;13.10;10.38;;;;;;;15.54;75.53;99654.31;4958648;28;20493;-93
2022/05/16 00:48:56;;;;;;;12.25;10.15;;;;;;;15.53;75.45;99657.31;4959608;28;20026;-93
2022/05/16 00:51:30;;;;;;;13.30;9.77;;;;;;;15.57;75.12;99653.72;4959430;28;20031;-93
2022/05/16 00:53:57;;;;;;;11.13;10.02;;;;;;;15.65;75.25;99660.38;4975992;28;20026;-93
2022/05/16 00:56:23;;;;;;;17.90;10.05;;;;;;;15.59;75.13;99645.28;4959454;28;20382;-93
2022/05/16 00:58:49;;;;;;;11.43;9.93;;;;;;;15.56;75.37;99645.84;4943972;28;20023;-93
2022/05/16 01:06:42;;;;;;;11.05;10.05;;;;;;;15.54;75.54;99661.63;4961906;28;20122;-93
2022/05/16 01:09:08;;;;;;;13.30;10.45;;;;;;;15.53;75.75;99662.75;4959553;28;20466;-93
2022/05/16 01:11:35;;;;;;;16.10;10.95;;;;;;;15.49;75.85;99654.38;4943208;28;20030;-92
2022/05/16 01:14:00;;;;;;;18.92;11.75;;;;;;;15.53;75.95;99654.59;4959176;28;20093;-93
2022/05/16 01:16:27;;;;;;;15.05;11.82;;;;;;;15.47;75.81;99643.00;4943009;28;20038;-93
2022/05/16 01:18:52;;;;;;;13.50;11.75;;;;;;;15.49;75.93;99645.44;4959671;28;20117;-93
2022/05/16 01:21:32;;;;;;;16.88;10.32;;;;;;;15.54;74.96;99651.59;4958695;28;20051;-93
2022/05/16 01:24:08;;;;;;;12.85;10.63;;;;;;;15.53;75.09;99663.53;4975929;28;20038;-93
2022/05/16 01:26:35;;;;;;;13.95;9.45;;;;;;;15.43;74.45;99652.03;4960151;28;20030;-93
2022/05/16 01:29:00;;;;;;;12.18;9.43;;;;;;;15.39;75.14;99664.56;4958010;28;20031;-92
2022/05/16 01:31:26;;;;;;;10.65;9.50;;;;;;;15.35;74.85;99657.00;4958844;28;20543;-93
2022/05/16 01:33:51;;;;;;;12.75;9.90;;;;;;;15.17;75.26;99644.25;4959831;28;20042;-93
2022/05/16 01:36:17;;;;;;;10.95;9.85;;;;;;;15.19;75.43;99649.38;4959557;28;20027;-91
2022/05/16 01:38:43;;;;;;;11.10;9.93;;;;;;;15.23;75.11;99656.66;4958666;28;20022;-94
2022/05/16 01:41:10;;;;;;;12.80;9.68;;;;;;;15.24;75.25;99655.53;4958761;28;20085;-94
2022/05/16 01:43:57;;;;;;;11.23;9.60;;;;;;;15.29;74.68;99643.81;4974899;28;20059;-93
2022/05/16 01:46:28;;;;;;;11.57;10.38;;;;;;;15.26;75.53;99660.69;4961412;28;20478;-93
2022/05/16 01:48:54;;;;;;;13.77;10.52;;;;;;;15.19;75.41;99660.22;4959097;28;20033;-93
2022/05/16 01:51:20;;;;;;;12.20;10.20;;;;;;;15.22;75.41;99659.66;4958662;28;20117;-93
2022/05/16 01:53:46;;;;;;;16.02;10.43;;;;;;;15.08;75.92;99654.94;4959035;28;20496;-93
2022/05/16 01:56:11;;;;;;;13.98;10.07;;;;;;;15.07;75.16;99638.97;4958467;28;20053;-94
2022/05/16 01:58:37;;;;;;;11.27;9.57;;;;;;;15.05;75.41;99654.72;4958043;28;20014;-93
2022/05/16 02:01:02;;;;;;;11.65;9.45;;;;;;;15.01;75.38;99651.00;4974321;28;20034;-95
2022/05/16 02:03:28;;;;;;;11.80;9.85;;;;;;;14.94;75.38;99635.88;4958027;28;20073;-95
2022/05/16 02:05:54;;;;;;;10.63;9.63;;;;;;;15.02;75.13;99645.25;4975007;28;20046;-94
2022/05/16 02:08:19;;;;;;;18.23;10.43;;;;;;;15.06;75.53;99653.63;4957776;28;20556;-94
2022/05/16 02:10:45;;;;;;;10.52;9.32;;;;;;;14.96;75.28;99646.41;4957961;28;20503;-93
2022/05/16 02:13:11;;;;;;;12.85;10.07;;;;;;;14.93;75.16;99647.81;4958303;28;20023;-93
2022/05/16 02:15:37;;;;;;;10.95;9.85;;;;;;;14.88;75.22;99636.22;4942130;28;20022;-93
2022/05/16 02:18:03;;;;;;;12.98;10.40;;;;;;;14.90;75.35;99653.00;4958048;28;20485;-95
2022/05/16 02:20:29;;;;;;;13.13;10.10;;;;;;;14.88;75.22;99660.59;4957800;28;20027;-93
2022/05/16 02:25:43;;;;;;;13.27;10.18;;;;;;;14.98;75.07;99662.41;4960928;28;20093;-93
2022/05/16 02:28:09;;;;;;;10.73;9.30;;;;;;;15.04;74.47;99659.31;4958246;28;20030;-92
2022/05/16 02:30:35;;;;;;;12.60;9.68;;;;;;;15.07;74.62;99655.25;4957985;28;20022;-93
2022/05/16 02:33:03;;;;;;;11.23;10.02;;;;;;;15.07;74.85;99658.75;4958128;28;20033;-94
2022/05/16 02:35:30;;;;;;;14.15;10.88;;;;;;;15.11;74.74;99656.28;4958621;28;20069;-94
2022/05/16 02:37:58;;;;;;;12.10;10.70;;;;;;;15.18;75.25;99667.56;4958409;28;20019;-92
2022/05/16 02:40:25;;;;;;;14.13;11.27;;;;;;;15.13;75.55;99657.59;4941740;28;20468;-92
2022/05/16 02:42:51;;;;;;;13.35;10.85;;;;;;;15.13;75.60;99657.59;4957861;28;20030;-92
2022/05/16 02:45:16;;;;;;;13.70;11.00;;;;;;;15.02;75.38;99647.97;4957547;28;20030;-93
2022/05/16 02:47:42;;;;;;;13.07;10.55;;;;;;;14.91;75.21;99647.28;4957369;28;20019;-92
2022/05/16 02:50:08;;;;;;;15.27;11.35;;;;;;;14.84;76.25;99663.13;4957216;28;20031;-93
2022/05/16 02:52:33;;;;;;;16.08;10.35;;;;;;;14.78;75.62;99650.72;4957379;28;20053;-92
2022/05/16 02:55:00;;;;;;;13.15;10.07;;;;;;;14.83;75.35;99663.41;4941352;28;20058;-92
2022/05/16 02:57:27;;;;;;;11.82;9.40;;;;;;;14.78;75.22;99661.56;4958671;28;20085;-93
2022/05/16 02:59:53;;;;;;;12.40;9.50;;;;;;;14.63;74.39;99651.72;4958808;28;20093;-93
2022/05/16 03:02:19;;;;;;;17.88;10.55;;;;;;;14.52;74.89;99648.25;4959076;28;20027;-92
2022/05/16 03:04:44;;;;;;;15.45;9.02;;;;;;;14.57;74.56;99661.00;4957316;28;20031;-93
2022/05/16 03:07:10;;;;;;;12.48;9.35;;;;;;;14.60;74.51;99665.00;4957443;28;20027;-92
2022/05/16 03:09:35;;;;;;;20.92;10.38;;;;;;;14.47;74.58;99659.16;4973832;28;20460;-93
2022/05/16 03:12:01;;;;;;;18.23;10.13;;;;;;;14.50;74.36;99644.22;4941962;28;20035;-93
2022/05/16 03:14:27;;;;;;;17.67;10.30;;;;;;;14.54;74.37;99658.81;4957908;28;20022;-92
2022/05/16 03:16:52;;;;;;;13.65;9.98;;;;;;;14.52;73.93;99653.66;4958059;28;20035;-95
2022/05/16 03:19:18;;;;;;;14.05;10.38;;;;;;;14.53;74.53;99654.50;4957210;28;20143;-94
2022/05/16 03:21:43;;;;;;;10.45;9.35;;;;;;;14.64;74.51;99666.06;4941102;28;20062;-92
2022/05/16 03:24:09;;;;;;;12.40;9.70;;;;;;;14.67;74.20;99671.72;4960334;28;20401;-94
2022/05/16 03:26:38;;;;;;;18.38;9.70;;;;;;;14.54;74.61;99672.34;4958362;28;20027;-94
2022/05/16 03:29:06;;;;;;;19.50;10.90;;;;;;;14.62;74.35;99681.78;4957673;28;20058;-94
2022/05/16 03:31:32;;;;;;;17.25;10.52;;;;;;;14.52;74.47;99666.41;4941553;28;20398;-94
2022/05/16 03:33:57;;;;;;;18.85;10.63;;;;;;;14.49;74.33;99664.28;4941042;28;20025;-95
2022/05/16 03:36:23;;;;;;;23.77;11.32;;;;;;;14.52;74.56;99669.13;4956726;28;20082;-94
2022/05/16 03:41:32;;;;;;;20.73;12.60;;;;;;;14.62;74.64;99685.31;4959706;28;20093;-94
2022/05/16 03:43:58;;;;;;;24.70;12.93;;;;;;;14.54;75.33;99680.47;4957364;28;20022;-92
2022/05/16 03:46:24;;;;;;;18.27;11.73;;;;;;;14.63;74.87;99681.53;4958053;28;20031;-94
2022/05/16 03:48:49;;;;;;;21.52;12.32;;;;;;;14.46;75.80;99681.91;4956947;28;20034;-95
2022/05/16 03:51:15;;;;;;;18.38;12.85;;;;;;;14.32;76.19;99673.66;4941885;28;20018;-96
2022/05/16 03:53:46;;;;;;;17.88;13.65;;;;;;;14.43;75.77;99681.69;4961594;28;20121;-95
2022/05/16 03:56:19;;;;;;;20.95;13.05;;;;;;;14.55;75.71;99691.06;4946413;28;20034;-94
2022/05/16 03:58:45;;;;;;;17.20;13.30;;;;;;;14.71;75.41;99699.88;4961083;28;20502;-94
2022/05/16 04:01:11;;;;;;;20.65;13.77;;;;;;;14.85;75.33;99704.56;4960481;28;20084;-94
2022/05/16 04:03:36;;;;;;;16.73;14.35;;;;;;;14.91;75.69;99695.28;4960477;28;20409;-94
2022/05/16 04:06:02;;;;;;;17.25;14.00;;;;;;;15.08;74.85;99701.03;4945350;28;20042;-95
2022/05/16 04:08:28;;;;;;;58.50;15.73;;;;;;;15.08;74.76;99692.09;4961301;28;20085;-95
2022/05/16 04:10:55;;;;;;;43.45;16.42;;;;;;;15.18;74.66;99702.03;4961441;28;20370;-94
2022/05/16 04:13:20;;;;;;;26.10;14.95;;;;;;;15.09;74.93;99697.25;4945194;28;20519;-89
2022/05/16 04:15:46;;;;;;;28.02;14.40;;;;;;;15.15;75.10;99714.28;4994112;28;20030;-89
2022/05/16 04:18:11;;;;;;;16.83;13.77;;;;;;;15.09;75.38;99699.94;4956137;28;20035;-89
2022/05/16 04:20:37;;;;;;;19.65;13.45;;;;;;;15.05;75.26;99688.06;4978223;28;20029;-90
2022/05/16 04:23:02;;;;;;;20.40;13.95;;;;;;;15.11;75.27;99713.22;4973746;28;20050;-88
2022/05/16 04:25:29;;;;;;;24.23;14.52;;;;;;;15.05;75.51;99704.34;4962891;28;20042;-88
2022/05/16 04:27:55;;;;;;;22.08;14.40;;;;;;;15.13;75.48;99705.63;4978378;28;20053;-87
2022/05/16 04:30:20;;;;;;;31.67;13.65;;;;;;;15.26;74.80;99721.16;4994382;28;20054;-88
2022/05/16 04:32:46;;;;;;;21.65;13.13;;;;;;;15.22;74.66;99705.78;4977939;28;20048;-89
2022/05/16 04:35:11;;;;;;;34.78;13.43;;;;;;;15.31;74.70;99712.94;4978330;28;20033;-88
2022/05/16 04:37:37;;;;;;;22.45;12.68;;;;;;;15.36;73.90;99706.66;4961871;28;20026;-89
2022/05/16 04:40:05;;;;;;;29.08;14.68;;;;;;;15.52;73.58;99713.50;4978257;28;20025;-90
2022/05/16 04:42:43;;;;;;;41.22;13.57;;;;;;;15.55;73.60;99703.97;4978364;28;20112;-88
2022/05/16 04:45:33;;;;;;;23.02;14.52;;;;;;;15.70;73.25;99725.44;4978561;28;20036;-89
2022/05/16 04:48:01;;;;;;;27.10;11.63;;;;;;;15.71;73.26;99713.50;5007938;28;20121;-90
2022/05/16 04:50:29;;;;;;;32.35;13.02;;;;;;;15.66;72.88;99691.84;4960568;28;20054;-89
2022/05/16 04:52:55;;;;;;;17.42;11.07;;;;;;;15.94;71.55;99711.81;4977607;28;20033;-90
2022/05/16 04:55:21;;;;;;;26.95;12.70;;;;;;;15.99;71.91;99705.50;4976661;28;20073;-91
2022/05/16 04:57:48;;;;;;;13.50;10.15;;;;;;;16.00;71.37;99711.72;4960572;28;20113;-93
2022/05/16 05:00:15;;;;;;;22.65;11.73;;;;;;;16.07;71.36;99706.75;4961004;28;20081;-92
2022/05/16 05:02:40;;;;;;;18.27;10.57;;;;;;;16.12;71.28;99706.66;4978354;28;20019;-91
2022/05/16 05:05:07;;;;;;;29.05;10.95;;;;;;;16.23;71.26;99712.72;4959488;28;20018;-93
2022/05/16 05:07:32;;;;;;;41.05;12.70;;;;;;;16.23;71.49;99710.81;4960251;28;20122;-91
2022/05/16 05:15:32;;;;;;;25.40;9.65;;;;;;;16.69;69.83;99717.34;4964686;28;20089;-92
2022/05/16 05:17:57;;;;;;;18.80;10.00;;;;;;;16.74;69.85;99712.59;4946815;28;20041;-93
2022/05/16 05:20:24;;;;;;;13.40;10.38;;;;;;;16.88;69.33;99731.69;4944521;28;20085;-94
2022/05/16 05:22:50;;;;;;;31.00;11.00;;;;;;;16.84;69.63;99708.91;4959711;28;20046;-92
2022/05/16 05:25:17;;;;;;;21.67;10.65;;;;;;;16.93;69.36;99703.56;4961286;28;20026;-91
2022/05/16 05:27:43;;;;;;;24.65;8.82;;;;;;;17.07;68.59;99725.34;4959990;28;20019;-90
2022/05/16 05:34:36;;;;;;;13.13;8.50;;;;;;;17.19;67.64;99733.81;4990622;28;20088;-92
2022/05/16 05:37:04;;;;;;;12.50;8.07;;;;;;;17.32;67.61;99734.91;5015422;28;20568;-96
2022/05/16 05:39:31;;;;;;;12.52;8.80;;;;;;;17.31;68.04;99708.81;4954806;28;20104;-91
2022/05/16 05:41:57;;;;;;;10.48;8.68;;;;;;;17.36;67.53;99714.13;4962104;28;20026;-92
2022/05/16 05:44:25;;;;;;;14.13;9.60;;;;;;;17.53;67.61;99724.38;4977825;28;20033;-90
2022/05/16 05:47:00;;;;;;;22.15;11.25;;;;;;;17.66;67.16;99718.09;4962893;28;20096;-89
2022/05/16 05:49:25;;;;;;;17.63;13.55;;;;;;;17.75;66.32;99716.25;4963155;28;20050;-95
2022/05/16 05:51:51;;;;;;;20.23;13.60;;;;;;;17.80;66.12;99714.50;4962216;28;20045;-91
2022/05/16 05:54:16;;;;;;;12.68;10.82;;;;;;;18.09;65.22;99725.03;4979231;28;20519;-93
2022/05/16 05:56:55;;;;;;;12.75;10.38;;;;;;;18.15;65.14;99731.97;4968558;28;20037;-94
2022/05/16 05:59:20;;;;;;;19.20;12.73;;;;;;;18.35;64.28;99736.91;4982272;28;20018;-93
2022/05/16 06:01:52;;;;;;;17.80;9.20;;;;;;;18.56;63.66;99755.47;4961786;28;20031;-92
2022/05/16 06:04:18;;;;;;;13.43;11.05;;;;;;;18.44;64.08;99720.59;4994633;28;20067;-94
2022/05/16 06:06:48;;;;;;;15.65;10.07;;;;;;;18.52;64.57;99727.22;4997910;28;20109;-95
2022/05/16 06:09:16;;;;;;;13.02;9.93;;;;;;;18.60;64.56;99723.75;4979209;28;20027;-95
2022/05/16 06:11:42;;;;;;;17.30;10.27;;;;;;;18.70;64.46;99728.91;4987532;28;20132;-95
2022/05/16 06:14:07;;;;;;;19.70;8.85;;;;;;;18.81;64.10;99726.75;4970176;28;20026;-94
2022/05/16 06:16:33;;;;;;;13.77;8.38;;;;;;;18.80;63.62;99714.25;4997032;28;20089;-95
2022/05/16 06:18:59;;;;;;;23.67;8.60;;;;;;;18.92;63.44;99717.16;4978927;28;20093;-93
2022/05/16 06:21:24;;;;;;;21.15;10.02;;;;;;;19.12;62.69;99731.34;4962998;28;20149;-94
2022/05/16 06:23:50;;;;;;;17.30;11.40;;;;;;;19.29;61.33;99723.19;4963361;28;20033;-91
2022/05/16 06:26:19;;;;;;;11.68;8.50;;;;;;;19.42;61.24;99734.31;4980743;28;20053;-93
2022/05/16 06:28:52;;;;;;;17.48;8.38;;;;;;;19.59;60.68;99729.69;4974056;28;20061;-92
2022/05/16 06:31:17;;;;;;;31.30;8.73;;;;;;;19.58;60.86;99725.31;4979969;28;20026;-92
2022/05/16 06:33:46;;;;;;;14.10;7.80;;;;;;;19.63;61.19;99720.84;4962891;28;20026;-90
2022/05/16 06:36:12;;;;;;;18.20;7.88;;;;;;;19.67;61.04;99721.81;4959742;28;20026;-91
2022/05/16 06:38:40;;;;;;;24.75;10.52;;;;;;;19.87;59.85;99723.94;4977328;28;20172;-92
2022/05/16 06:41:06;;;;;;;21.77;10.38;;;;;;;19.93;59.76;99736.31;4995753;28;20102;-94
2022/05/16 06:43:41;;;;;;;22.58;10.23;;;;;;;20.03;59.02;99743.38;4963825;28;20098;-94
2022/05/16 06:49:41;;;;;;;15.23;9.90;;;;;;;20.47;58.79;99746.06;4985965;28;20041;-96
2022/05/16 06:52:21;;;;;;;15.75;8.82;;;;;;;20.62;58.76;99742.03;4969570;28;20034;-94
2022/05/16 06:58:11;;;;;;;15.52;10.65;;;;;;;20.70;57.63;99717.38;4977531;28;20592;-94
2022/05/16 07:01:09;;;;;;;15.50;9.50;;;;;;;20.90;57.55;99715.03;4976668;28;20546;-95
2022/05/16 07:03:37;;;;;;;18.70;10.38;;;;;;;21.16;57.64;99729.38;4996154;28;20038;-94
2022/05/16 07:06:03;;;;;;;21.98;10.77;;;;;;;21.25;56.79;99721.13;4979192;28;20042;-94
2022/05/16 07:08:29;;;;;;;22.05;11.75;;;;;;;21.48;56.52;99731.81;4976862;28;20030;-94
2022/05/16 07:10:54;;;;;;;118.22;82.28;;;;;;;21.49;55.98;99722.47;4977789;28;20116;-92
2022/05/16 07:13:23;;;;;;;63.13;46.33;;;;;;;21.69;52.74;99718.94;4977484;28;20022;-92
2022/05/16 07:15:51;;;;;;;17.88;11.00;;;;;;;21.75;51.75;99709.38;4965211;28;20118;-94
2022/05/16 07:18:20;;;;;;;18.92;9.98;;;;;;;21.83;53.62;99718.66;4963993;28;20030;-95
2022/05/16 07:21:12;;;;;;;16.25;9.52;;;;;;;22.06;53.33;99735.56;4968720;28;20053;-93
2022/05/16 07:23:45;;;;;;;18.80;8.93;;;;;;;22.17;52.22;99730.44;4979151;28;20045;-94
2022/05/16 07:29:01;;;;;;;12.15;8.32;;;;;;;22.30;50.03;99709.38;4984556;28;20029;-94
2022/05/16 07:31:37;;;;;;;;;;;;;;;;;;;;;
2022/05/16 07:34:08;;;;;;;15.90;7.28;;;;;;;22.64;47.52;99713.69;4999289;28;20109;-96
2022/05/16 07:36:50;;;;;;;19.20;9.25;;;;;;;22.70;48.57;99709.56;4985736;28;20031;-96
2022/05/16 07:39:18;;;;;;;16.02;8.60;;;;;;;22.93;49.18;99718.16;4970542;28;20026;-91
2022/05/16 07:41:46;;;;;;;13.45;7.28;;;;;;;23.07;48.90;99725.28;4963284;28;20073;-92
2022/05/16 07:44:12;;;;;;;15.52;8.30;;;;;;;23.05;48.94;99713.84;4931232;28;20649;-93
2022/05/16 07:46:41;;;;;;;16.30;7.70;;;;;;;23.12;48.56;99703.09;4963925;28;20035;-93
2022/05/16 07:49:16;;;;;;;11.43;6.90;;;;;;;23.19;48.50;99695.06;4963304;28;20053;-93
2022/05/16 07:51:41;;;;;;;20.45;7.68;;;;;;;23.45;48.98;99719.41;4947745;28;20026;-94
2022/05/16 07:54:08;;;;;;;13.88;7.03;;;;;;;23.46;47.43;99717.47;4946774;28;20031;-93
2022/05/16 07:56:34;;;;;;;11.55;6.57;;;;;;;23.52;45.88;99711.38;4947932;28;20053;-95
2022/05/16 07:59:02;;;;;;;10.60;6.28;;;;;;;23.61;45.44;99705.72;4947282;28;20031;-94
2022/05/16 08:01:28;;;;;;;14.65;6.05;;;;;;;23.63;45.34;99697.94;4946879;28;20027;-94
2022/05/16 08:03:56;;;;;;;11.40;6.30;;;;;;;23.85;44.20;99718.66;4946410;28;20049;-95
2022/05/16 08:06:27;;;;;;;12.55;7.18;;;;;;;23.92;45.23;99704.28;4947147;28;20038;-93
2022/05/16 08:11:58;;;;;;;27.55;5.65;;;;;;;24.22;42.95;99704.72;4963114;28;20500;-94
2022/05/16 08:14:24;;;;;;;13.75;5.15;;;;;;;24.39;41.71;99703.59;4981538;28;20041;-93
2022/05/16 08:17:14;;;;;;;14.73;5.55;;;;;;;24.32;41.13;99695.13;4949311;28;20030;-95
2022/05/16 08:19:40;;;;;;;6.28;4.20;;;;;;;24.58;39.97;99698.22;4962131;28;20046;-92
2022/05/16 08:22:06;;;;;;;7.15;4.38;;;;;;;24.68;40.41;99698.84;4967615;28;20059;-91
2022/05/16 08:24:31;;;;;;;8.85;4.72;;;;;;;24.70;39.16;99702.84;4956973;29;20043;-93
2022/05/16 08:26:57;;;;;;;13.13;5.25;;;;;;;24.93;39.30;99711.28;4941882;28;20090;-93
2022/05/16 08:29:22;;;;;;;14.15;5.20;;;;;;;25.20;39.43;99714.25;4944055;28;20421;-95
2022/05/16 08:32:42;;;;;;;8.40;3.65;;;;;;;25.19;37.41;99696.94;4937736;28;20058;-95
2022/05/16 08:35:08;;;;;;;14.88;5.13;;;;;;;25.29;37.94;99703.06;4949376;28;20031;-89
2022/05/16 08:40:18;;;;;;;17.67;4.07;;;;;;;25.51;35.00;99691.34;4981361;28;20041;-90
2022/05/16 08:42:53;;;;;;;18.08;6.03;;;;;;;25.70;36.98;99709.06;4978905;28;20038;-90
2022/05/16 08:45:22;;;;;;;6.82;3.95;;;;;;;25.77;38.13;99711.97;4979159;28;20045;-89
2022/05/16 08:47:55;;;;;;;9.45;3.70;;;;;;;25.96;37.94;99714.78;4961316;28;20393;-89
2022/05/16 08:50:33;;;;;;;6.80;3.90;;;;;;;25.68;37.58;99703.91;4931555;29;20106;-91
2022/05/16 08:53:07;;;;;;;12.60;4.13;;;;;;;25.88;38.35;99698.38;4956848;28;20026;-90
2022/05/16 08:55:45;;;;;;;16.77;14.15;;;;;;;25.99;40.34;99710.47;4927082;29;20023;-90
2022/05/16 08:58:33;;;;;;;77.25;64.63;;;;;;;25.98;41.25;99704.16;4962803;28;20515;-89
2022/05/16 09:04:30;;;;;;;11.85;4.72;;;;;;;25.77;40.96;99679.69;5006241;28;20045;-92
2022/05/16 09:07:09;;;;;;;5.45;3.80;;;;;;;26.02;39.13;99690.41;4971546;28;20030;-95
2022/05/16 09:09:37;;;;;;;16.83;10.60;;;;;;;26.11;37.55;99710.31;4928420;28;20038;-91
2022/05/16 09:12:08;;;;;;;7.50;3.83;;;;;;;25.96;37.41;99684.41;4971795;28;20092;-93
2022/05/16 09:14:45;;;;;;;;;;;;;;;26.13;38.43;99696.97;4961574;28;20084;-90
2022/05/16 09:17:35;;;;;;;8.00;3.80;;;;;;;26.23;36.71;99692.81;4959128;28;20356;-92
2022/05/16 09:20:26;;;;;;;7.30;3.63;;;;;;;26.15;35.64;99675.31;4947561;28;20026;-94
2022/05/16 09:26:52;;;;;;;13.27;4.70;;;;;;;25.96;37.26;99684.41;5000804;28;20269;-94
2022/05/16 09:30:02;;;;;;;7.28;4.15;;;;;;;26.05;37.72;99686.16;5006529;28;20029;-96
2022/05/16 09:32:43;;;;;;;8.65;3.92;;;;;;;25.77;38.98;99665.06;5021144;28;20057;-95
2022/05/16 09:36:05;;;;;;;;;;;;;;;;;;;;;
2022/05/16 09:55:46;;;;;;;10.82;4.93;;;;;;;26.64;38.63;99665.50;5068440;23;20507;-96
2022/05/16 09:58:20;;;;;;;8.90;4.03;;;;;;;26.42;36.89;99640.28;5056886;28;20013;-92
2022/05/16 10:00:54;;;;;;;9.40;4.55;;;;;;;26.28;37.41;99645.56;5043744;28;20093;-91
2022/05/16 10:03:32;;;;;;;10.20;5.00;;;;;;;26.34;36.93;99657.91;5025679;28;20075;-91
2022/05/16 10:06:25;;;;;;;4.65;4.13;;;;;;;26.33;35.38;99649.97;5035751;28;20556;-90
2022/05/16 10:08:51;;;;;;;7.30;4.60;;;;;;;26.37;37.05;99642.56;5050938;28;20036;-91
2022/05/16 10:11:28;;;;;;;5.93;3.88;;;;;;;26.23;35.86;99626.56;5055103;28;20031;-90
2022/05/16 10:13:54;;;;;;;6.82;3.90;;;;;;;26.29;36.89;99651.88;5039548;28;20030;-91
2022/05/16 10:16:21;;;;;;;7.97;4.00;;;;;;;26.08;37.59;99633.75;5036372;28;20025;-91
2022/05/16 10:18:54;;;;;;;10.18;4.18;;;;;;;26.09;37.17;99645.63;5041444;28;20017;-92
2022/05/16 10:21:35;;;;;;;5.22;3.88;;;;;;;25.84;37.16;99625.78;5035789;28;20107;-90
2022/05/16 10:24:10;;;;;;;14.18;4.80;;;;;;;26.06;36.75;99629.78;5019977;28;20024;-92
2022/05/16 10:26:44;;;;;;;9.07;3.70;;;;;;;26.01;36.39;99630.88;5034095;28;20040;-89
2022/05/16 10:29:13;;;;;;;9.10;4.00;;;;;;;25.98;36.71;99618.63;5015498;28;20079;-90
2022/05/16 10:34:34;;;;;;;14.25;4.43;;;;;;;26.14;36.66;99604.69;5039677;28;20504;-90
2022/05/16 10:37:00;;;;;;;11.55;4.45;;;;;;;26.29;36.27;99613.22;5020167;28;20415;-90
2022/05/16 10:39:28;;;;;;;5.50;3.60;;;;;;;26.39;36.58;99607.09;5038049;28;20029;-90
2022/05/16 10:41:58;;;;;;;10.20;6.05;;;;;;;26.59;36.24;99614.16;5054628;28;20024;-90
2022/05/16 10:44:59;;;;;;;12.02;4.10;;;;;;;26.30;36.90;99585.25;5054617;28;20028;-90
2022/05/16 10:47:31;;;;;;;7.03;4.50;;;;;;;26.53;36.65;99607.31;5058319;28;20035;-90
2022/05/16 10:50:41;;;;;;;9.05;3.38;;;;;;;26.31;37.70;99611.69;5050064;28;20033;-91
2022/05/16 10:53:14;;;;;;;7.63;4.07;;;;;;;26.22;37.72;99600.09;4986425;28;20430;-88
2022/05/16 10:56:00;;;;;;;6.05;3.70;;;;;;;26.23;38.24;99598.13;5011718;28;20050;-92
2022/05/16 10:58:51;;;;;;;7.97;4.13;;;;;;;26.35;37.45;99604.25;5005769;28;20038;-89
2022/05/16 11:01:29;;;;;;;7.97;3.85;;;;;;;26.36;36.16;99583.78;5005808;28;20030;-89
2022/05/16 11:04:25;;;;;;;6.75;3.45;;;;;;;26.43;36.10;99591.38;4998621;28;20497;-91
2022/05/16 11:07:09;;;;;;;8.02;3.90;;;;;;;26.35;35.36;99576.66;5047857;28;20029;-89
2022/05/16 11:09:53;;;;;;;5.43;3.50;;;;;;;26.53;35.42;99590.75;5037752;28;20104;-89
2022/05/16 11:12:28;;;;;;;8.40;4.28;;;;;;;26.67;34.78;99589.41;5053203;28;20021;-92
2022/05/16 11:15:26;;;;;;;6.45;3.08;;;;;;;26.69;34.26;99557.47;5070258;28;20020;-92
2022/05/16 11:18:07;;;;;;;8.48;3.33;;;;;;;27.00;32.86;99564.63;5073525;28;20036;-93
2022/05/16 11:20:42;;;;;;;10.70;3.40;;;;;;;27.02;33.37;99561.50;5071362;28;20036;-92
2022/05/16 11:23:17;;;;;;;8.43;2.90;;;;;;;27.10;32.78;99573.41;5036882;28;20024;-91
2022/05/16 11:26:02;;;;;;;4.50;3.00;;;;;;;27.12;33.15;99571.88;5052962;28;20036;-88
2022/05/16 11:28:39;;;;;;;4.22;2.80;;;;;;;27.05;33.23;99551.66;5056316;28;20024;-89
2022/05/16 11:31:12;;;;;;;3.75;2.50;;;;;;;27.20;33.07;99556.16;5049629;28;20028;-89
2022/05/16 11:34:16;;;;;;;8.90;3.30;;;;;;;27.25;33.43;99553.13;5033584;28;20421;-91
2022/05/16 11:36:53;;;;;;;7.10;3.00;;;;;;;27.32;33.15;99567.00;5029165;28;20080;-91
2022/05/16 11:39:31;;;;;;;5.78;3.15;;;;;;;27.17;33.81;99554.97;5059063;28;20028;-93
2022/05/16 11:42:03;;;;;;;6.10;3.03;;;;;;;27.37;33.78;99550.09;5052559;28;20483;-92
2022/05/16 11:44:31;;;;;;;5.68;2.88;;;;;;;27.54;33.35;99548.69;5050173;28;20403;-89
2022/05/16 11:47:34;;;;;;;3.55;2.75;;;;;;;27.48;32.40;99552.97;5034285;28;20047;-93
2022/05/16 11:50:34;;;;;;;2.92;2.53;;;;;;;27.53;31.73;99540.78;5046656;28;20036;-90
2022/05/16 11:53:40;;;;;;;5.63;2.72;;;;;;;27.40;31.74;99535.50;5045716;28;20391;-92
2022/05/16 12:02:40;;;;;;;4.82;2.58;;;;;;;27.09;31.86;99517.34;5053903;28;20032;-91
2022/05/16 12:05:32;;;;;;;9.15;6.70;;;;;;;27.15;31.12;99521.38;5040139;28;20036;-89
2022/05/16 12:08:24;;;;;;;4.22;2.60;;;;;;;27.03;30.35;99485.69;5035559;28;20418;-89
2022/05/16 12:11:13;;;;;;;7.97;3.20;;;;;;;27.37;30.81;99482.91;5016871;28;20088;-91
2022/05/16 12:14:20;;;;;;;7.90;3.10;;;;;;;27.49;31.64;99503.97;4984538;28;20068;-89
2022/05/16 12:17:19;;;;;;;7.55;2.53;;;;;;;27.38;30.11;99501.13;5009428;28;20033;-94
2022/05/16 12:19:53;;;;;;;6.63;3.25;;;;;;;27.17;31.44;99479.53;5004099;28;20027;-93
2022/05/16 12:22:42;;;;;;;6.47;2.92;;;;;;;27.36;31.85;99503.47;5009612;28;20044;-95
2022/05/16 12:25:10;;;;;;;5.43;2.67;;;;;;;27.37;31.55;99477.38;5021947;28;20136;-95
2022/05/16 12:28:30;;;;;;;7.10;2.95;;;;;;;27.42;30.73;99475.06;5004802;28;20041;-95
2022/05/16 12:30:57;;;;;;;5.57;2.70;;;;;;;27.47;30.78;99478.69;4996935;28;20038;-94
2022/05/16 12:33:49;;;;;;;6.18;4.95;;;;;;;27.53;30.68;99477.16;4974555;28;20049;-92
2022/05/16 12:36:41;;;;;;;7.93;3.00;;;;;;;27.43;29.91;99459.28;4980174;28;20045;-90
2022/05/16 12:39:16;;;;;;;6.88;2.38;;;;;;;27.70;29.31;99478.50;4995571;28;20573;-91
2022/05/16 12:41:58;;;;;;;9.15;3.25;;;;;;;27.81;29.27;99449.75;5016593;28;20040;-90
2022/05/16 12:44:44;;;;;;;4.45;3.38;;;;;;;27.75;29.54;99447.72;5037316;28;20025;-92
2022/05/16 12:48:09;;;;;;;8.48;2.70;;;;;;;27.80;28.90;99467.50;5054346;28;20055;-92
2022/05/16 12:51:21;;;;;;;5.95;2.90;;;;;;;27.95;28.50;99468.47;4986161;28;20520;-91
2022/05/16 12:54:32;;;;;;;7.35;2.95;;;;;;;28.12;29.39;99474.50;5016460;28;20444;-93
2022/05/16 12:57:27;;;;;;;4.35;2.63;;;;;;;27.88;28.72;99467.63;4988666;28;20197;-93
2022/05/16 13:00:06;;;;;;;8.20;4.10;;;;;;;28.12;29.41;99472.56;4945680;28;20039;-93
2022/05/16 13:02:42;;;;;;;6.20;2.80;;;;;;;28.32;28.85;99453.69;4969000;28;20114;-93